Terminal Aerodrome Forecast
Issued by NWS Raleigh/Durham, NC

Home | Current Version | Previous Version | Text Only | Print | Product List | Glossary On
Versions: 1 2 3 4 5 6 7 8 9 10 11 12 13 14 15 16 17 18
000
FTUS42 KRAH 211720
TAFRDU
TAF
KRDU 211720Z 2118/2218 12005KT P6SM BKN250
     FM220800 11003KT 5SM BR BKN020
      TEMPO 2210/2213 3SM -DZ BR OVC007
     FM221500 16004KT P6SM BKN025=

USA.gov is the U.S. government's official web portal to all federal, state and local government web resources and services.